Terminal Aerodrome Forecast
Issued by NWS Milwaukee/Sullivan, WI

Home | Current Version | Previous Version | Text Only | Print | Product List | Glossary On
Versions: 1 2 3 4 5 6 7 8 9 10 11 12 13 14 15 16 17 18 19 20 21 22 23 24 25 26 27 28 29 30 31 32 33 34 35 36 37 38 39 40 41 42 43 44 45 46 47 48 49 50
000
FTUS43 KMKX 300906 AAB
TAFMKE
TAF AMD
KMKE 300906Z 3009/3112 VRB03KT 1 1/2SM BR OVC002
      TEMPO 3009/3012 1/4SM FG
     FM301400 VRB03KT 3SM BR BKN006
     FM301600 VRB03KT 6SM BR BKN015
     FM302000 13006KT P6SM SCT020 SCT200
     FM310500 20004KT P6SM FEW250=

USA.gov is the U.S. government's official web portal to all federal, state and local government web resources and services.